Летающим высоко и низко: ПОГОДА В АЭРОПОРТАХ

Datasource: http://meteocentre.com/cgi-bin/get_taf?STN=UUEE
    за последний срок по а/п  (сейчас 3:47 мск)
UUEE на Метеоцентре                GFS-прогноз по UUEE                   Погода сейчас
UUEE: 6

Line #10 1 58: TAF UUEE 160459Z 1606/1706 VRB01MPS 9000 SCT030 TX03/1612Z

160459Z Авиапрогноз Москва (Шереметьево), составлен 16 ноября 8:59 мск:
с 9:00 (16 ноября) до 9:00 (17 ноября) ветер переменный 1 м/c; видимость 9000 м; облачн. разбросанная 900 м; [TX03/1612Z]

Line #11 2 37: TNM07/1703Z BECMG 1612/1614 24005MPS
[TNM07/1703Z]
Постеп. изменение: с 15:00 (16 ноября) до 17:00 (16 ноября) ветер 240° (ЗЮЗ) 5 м/c;

Line #12 3 58: TAF UUEE 160459Z 1606/1706 VRB01MPS 9000 SCT030 TX03/1612Z

Авиапрогноз Москва (Шереметьево), составлен 16 ноября 8:59 мск:
с 9:00 (16 ноября) до 9:00 (17 ноября) ветер переменный 1 м/c; видимость 9000 м; облачн. разбросанная 900 м; [TX03/1612Z]

Line #13 4 11: TNM07/1703Z
[TNM07/1703Z]

Line #14 5 25: BECMG 1612/1614 24005MPS

Постеп. изменение: с 15:00 (16 ноября) до 17:00 (16 ноября) ветер 240° (ЗЮЗ) 5 м/c;

Line #15 6 58: TAF UUEE 160459Z 1606/1706 VRB01MPS 9000 SCT030 TX03/1612Z

Авиапрогноз Москва (Шереметьево), составлен 16 ноября 8:59 мск:
с 9:00 (16 ноября) до 9:00 (17 ноября) ветер переменный 1 м/c; видимость 9000 м; облачн. разбросанная 900 м; [TX03/1612Z]

Line #16 7 11: TNM07/1703Z
[TNM07/1703Z]

Line #17 8 25: BECMG 1612/1614 24005MPS

Постеп. изменение: с 15:00 (16 ноября) до 17:00 (16 ноября) ветер 240° (ЗЮЗ) 5 м/c;